PDT,Max TemperatureF,Mean TemperatureF,Min TemperatureF,Max Dew PointF,MeanDew PointF,Min DewpointF,Max Humidity, Mean Humidity, Min Humidity, Max Sea Level PressureIn, Mean Sea Level PressureIn, Min Sea Level PressureIn, Max VisibilityMiles, Mean VisibilityMiles, Min VisibilityMiles, Max Wind SpeedMPH, Mean Wind SpeedMPH, Max Gust SpeedMPH,PrecipitationIn, CloudCover, Events, WindDirDegrees
2011-10-1,60,56,51,52,50,46,94,81,59,29.96,29.92,29.85,10,9,2,5,0,,0.00,7,,350
2011-10-2,66,57,48,55,51,46,93,81,64,29.96,29.90,29.82,10,10,10,14,2,20,0.06,7,,156
2011-10-3,62,58,55,52,51,48,88,78,63,29.85,29.83,29.80,10,10,10,13,8,21,0.07,8,,153
2011-10-4,60,56,53,50,47,45,88,73,55,29.80,29.61,29.41,10,10,8,16,10,24,0.19,7,,148
2011-10-5,55,52,50,50,47,45,88,82,72,29.75,29.56,29.42,10,10,9,12,7,18,0.12,7,,152
2011-10-6,55,52,50,52,48,46,88,85,77,30.08,29.94,29.78,10,9,1,7,3,,0.01,8,,153
2011-10-7,57,54,51,54,51,48,94,89,82,30.19,30.14,30.10,10,8,0,7,4,,0.05,8,,152
2011-10-8,66,60,53,54,53,50,94,80,59,30.22,30.17,30.09,10,9,0,10,3,,0.00,6,,162
2011-10-9,60,56,53,54,52,50,94,89,72,30.11,30.02,29.88,10,8,1,8,1,,0.03,7,,160
2011-10-10,60,56,51,55,52,48,94,87,72,29.79,29.64,29.56,10,9,4,16,6,28,0.19,7,,155
2011-10-11,60,56,51,54,51,48,94,85,72,30.07,29.85,29.63,10,9,4,15,9,24,0.82,7,,166
2011-10-12,62,56,51,50,48,45,94,77,55,30.25,30.21,30.14,10,10,1,9,5,,0.19,5,,158
2011-10-13,57,52,46,46,45,45,93,79,63,30.23,30.14,30.01,10,10,2,13,3,20,0.00,3,,355
2011-10-14,60,55,50,48,46,45,82,74,63,29.99,29.97,29.94,10,10,10,9,5,,0.00,8,,359
2011-10-15,59,52,46,48,46,45,94,81,67,30.07,30.02,29.99,10,10,10,12,4,17,0.01,4,,352
2011-10-16,57,52,46,45,44,43,87,79,63,30.26,30.14,30.01,10,10,2,9,4,,0.00,5,,350
2011-10-17,64,52,41,46,42,37,93,73,48,30.40,30.33,30.25,10,9,1,12,4,17,0.00,3,,349
2011-10-18,71,56,41,54,44,37,93,71,41,30.23,30.09,29.94,10,10,0,7,2,,0.00,0,,348
2011-10-19,57,50,44,52,47,41,93,85,72,30.11,30.02,29.91,10,9,2,9,2,17,0.00,5,,150
2011-10-20,59,52,46,52,47,45,100,87,63,30.12,30.10,30.06,10,6,1,4,0,,0.06,6,,135
2011-10-21,60,55,50,54,51,48,94,84,63,30.26,30.18,30.11,10,8,2,16,5,22,0.05,8,,152
2011-10-22,62,58,55,57,55,54,94,88,77,30.25,30.22,30.18,10,9,0,12,6,18,0.12,8,,155
2011-10-23,59,55,51,55,51,46,100,84,67,30.21,30.18,30.12,10,9,0,7,1,,0.10,5,,329
2011-10-24,55,48,42,45,43,41,93,81,58,30.34,30.28,30.18,10,6,0,7,1,,0.00,6,,171
2011-10-25,55,46,37,43,39,34,93,79,58,30.44,30.40,30.36,10,10,2,12,3,17,0.00,3,,348
2011-10-26,50,42,35,39,37,34,93,81,62,30.38,30.31,30.25,10,7,0,12,2,16,0.00,8,,148
2011-10-27,55,46,37,41,38,34,93,79,54,30.31,30.25,30.11,10,8,0,9,2,,0.00,4,,347
2011-10-28,53,46,39,46,40,37,93,74,58,30.09,30.03,29.97,10,10,8,20,6,29,0.10,5,,153
2011-10-29,60,52,44,48,46,43,93,84,59,30.31,30.24,30.15,10,6,0,8,2,,0.07,5,,160
2011-10-30,60,53,46,55,50,45,94,86,72,30.19,30.12,30.08,10,10,1,10,6,16,0.02,8,,157
2011-10-31,55,48,42,45,41,37,93,79,54,30.43,30.36,30.27,10,8,2,10,2,16,0.00,5,,323